Observation data for Clarendon on 08/14/2019      Previous  Date  Next       Current Mesonet Observations  Soil Data  Daily Summary Page  Observations in Plain Language
KCES 140500Z 06006KT 23/18 A3015 RMK A01 T02340176  RH  074%=      5-min Rain = 0
KCES 140505Z 04007KT 23/18 A3016 RMK A01 T02310177  RH  075%=      5-min Rain = 0
KCES 140510Z 03009KT 23/18 A3017 RMK A01 T02310179  RH  077%=      5-min Rain = 0
KCES 140515Z 03008KT 23/18 A3018 RMK A01 T02300182  RH  079%=      5-min Rain = 0
KCES 140520Z 04007KT 23/18 A3018 RMK A01 T02290184  RH  080%=      5-min Rain = 0
KCES 140525Z 05006KT 23/19 A3017 RMK A01 T02290185  RH  080%=      5-min Rain = 0
KCES 140530Z 05006KT 23/19 A3017 RMK A01 T02300185  RH  080%=      5-min Rain = 0
KCES 140535Z 05006KT 23/19 A3017 RMK A01 T02310185  RH  079%=      5-min Rain = 0
KCES 140540Z 05007KT 23/18 A3017 RMK A01 T02320184  RH  079%=      5-min Rain = 0
KCES 140545Z 04006KT 23/18 A3018 RMK A01 T02330184  RH  078%=      5-min Rain = 0
KCES 140550Z 05005KT 23/18 A3018 RMK A01 T02320184  RH  078%=      5-min Rain = 0
KCES 140555Z 06007KT 23/18 A3017 RMK A01 T02330183  RH  078%=      5-min Rain = 0
KCES 140600Z 07007KT 23/18 A3017 RMK A01 T02340182  RH  077%=      5-min Rain = 0
KCES 140605Z 06007KT 24/18 A3017 RMK A01 T02350182  RH  076%=      5-min Rain = 0
KCES 140610Z 04015G25KT 24/18 A3018 RMK A01 T02350180  RH  075%=      5-min Rain = 0
KCES 140615Z 04022G28KT 23/17 A3017 RMK A01 T02330173  RH  073%=      5-min Rain = 0
KCES 140620Z 04019G27KT 22/16 A3017 RMK A01 T02240158  RH  069%=      5-min Rain = 0
KCES 140625Z 04017KT 22/15 A3017 RMK A01 T02190154  RH  070%=      5-min Rain = 0
KCES 140630Z 04013KT 22/15 A3017 RMK A01 T02160154  RH  071%=      5-min Rain = 0
KCES 140635Z 04014KT 21/15 A3017 RMK A01 T02140151  RH  070%=      5-min Rain = 0
KCES 140640Z 04012G18KT 21/15 A3018 RMK A01 T02140148  RH  069%=      5-min Rain = 0
KCES 140645Z 04011KT 21/15 A3017 RMK A01 T02120146  RH  069%=      5-min Rain = 0
KCES 140650Z 04013G20KT 21/14 A3018 RMK A01 T02100141  RH  068%=      5-min Rain = 0
KCES 140655Z 05013KT 21/14 A3017 RMK A01 T02100138  RH  066%=      5-min Rain = 0
KCES 140700Z 04012KT 21/14 A3018 RMK A01 T02090137  RH  066%=      5-min Rain = 0
KCES 140705Z 04011KT 21/14 A3018 RMK A01 T02080136  RH  066%=      5-min Rain = 0
KCES 140710Z 03008KT 21/14 A3018 RMK A01 T02050137  RH  068%=      5-min Rain = 0
KCES 140715Z 04011KT 20/14 A3018 RMK A01 T02030136  RH  068%=      5-min Rain = 0
KCES 140720Z 03010KT 20/13 A3017 RMK A01 T02030134  RH  067%=      5-min Rain = 0
KCES 140725Z 03010KT 20/13 A3017 RMK A01 T02020133  RH  067%=      5-min Rain = 0
KCES 140730Z 03010KT 20/13 A3017 RMK A01 T02000133  RH  068%=      5-min Rain = 0
KCES 140735Z 03007KT 20/13 A3017 RMK A01 T01990133  RH  069%=      5-min Rain = 0
KCES 140740Z 03009KT 20/13 A3017 RMK A01 T01980133  RH  069%=      5-min Rain = 0
KCES 140745Z 03009KT 20/13 A3017 RMK A01 T01970133  RH  069%=      5-min Rain = 0
KCES 140750Z 03010KT 20/13 A3017 RMK A01 T01960132  RH  069%=      5-min Rain = 0
KCES 140755Z 02009KT 20/13 A3017 RMK A01 T01970132  RH  069%=      5-min Rain = 0
KCES 140800Z 02008KT 20/13 A3017 RMK A01 T01960132  RH  069%=      5-min Rain = 0
KCES 140805Z 02008KT 20/13 A3017 RMK A01 T01950132  RH  070%=      5-min Rain = 0
KCES 140810Z 02008KT 19/13 A3017 RMK A01 T01940132  RH  070%=      5-min Rain = 0
KCES 140815Z 03008KT 20/13 A3017 RMK A01 T01950132  RH  069%=      5-min Rain = 0
KCES 140820Z 02007KT 20/13 A3017 RMK A01 T01950132  RH  069%=      5-min Rain = 0
KCES 140825Z 03008KT 20/13 A3017 RMK A01 T01950132  RH  069%=      5-min Rain = 0
KCES 140830Z 04009KT 20/13 A3017 RMK A01 T01960132  RH  069%=      5-min Rain = 0
KCES 140835Z 05008KT 20/13 A3016 RMK A01 T01960132  RH  069%=      5-min Rain = 0
KCES 140840Z 05008KT 20/13 A3016 RMK A01 T01960132  RH  069%=      5-min Rain = 0
KCES 140845Z 04008KT 20/13 A3016 RMK A01 T01950132  RH  070%=      5-min Rain = 0
KCES 140850Z 04008KT 20/13 A3017 RMK A01 T01950133  RH  070%=      5-min Rain = 0
KCES 140855Z 05008KT 19/13 A3017 RMK A01 T01940133  RH  071%=      5-min Rain = 0
KCES 140900Z 04009KT 19/13 A3017 RMK A01 T01940134  RH  071%=      5-min Rain = 0
KCES 140905Z 04009KT 19/13 A3017 RMK A01 T01930134  RH  072%=      5-min Rain = 0
KCES 140910Z 03009KT 19/14 A3017 RMK A01 T01920135  RH  072%=      5-min Rain = 0
KCES 140915Z 03009KT 19/14 A3017 RMK A01 T01910135  RH  073%=      5-min Rain = 0
KCES 140920Z 03008KT 19/14 A3017 RMK A01 T01890136  RH  074%=      5-min Rain = 0
KCES 140925Z 03008KT 19/14 A3018 RMK A01 T01890136  RH  075%=      5-min Rain = 0
KCES 140930Z 03008KT 19/14 A3019 RMK A01 T01880137  RH  075%=      5-min Rain = 0
KCES 140935Z 02007KT 19/14 A3019 RMK A01 T01870137  RH  076%=      5-min Rain = 0
KCES 140940Z 02006KT 19/14 A3019 RMK A01 T01860138  RH  076%=      5-min Rain = 0
KCES 140945Z 02006KT 19/14 A3019 RMK A01 T01850138  RH  077%=      5-min Rain = 0
KCES 140950Z 03005KT 18/14 A3019 RMK A01 T01840138  RH  078%=      5-min Rain = 0
KCES 140955Z 04005KT 18/14 A3019 RMK A01 T01830139  RH  078%=      5-min Rain = 0
KCES 141000Z 04004KT 18/14 A3019 RMK A01 T01820139  RH  079%=      5-min Rain = 0
KCES 141005Z 03003KT 18/14 A3019 RMK A01 T01800138  RH  080%=      5-min Rain = 0
KCES 141010Z 03003KT 18/14 A3019 RMK A01 T01790138  RH  080%=      5-min Rain = 0
KCES 141015Z 02003KT 18/14 A3019 RMK A01 T01780138  RH  081%=      5-min Rain = 0
KCES 141020Z 02003KT 18/14 A302 RMK A01 T01750136  RH  081%=      5-min Rain = 0
KCES 141025Z 02004KT 17/14 A3021 RMK A01 T01740137  RH  082%=      5-min Rain = 0
KCES 141030Z 02005KT 17/14 A3021 RMK A01 T01730138  RH  083%=      5-min Rain = 0
KCES 141035Z 02004KT 17/14 A3021 RMK A01 T01730140  RH  084%=      5-min Rain = 0
KCES 141040Z 02004KT 17/14 A3021 RMK A01 T01740140  RH  084%=      5-min Rain = 0
KCES 141045Z 01005KT 17/14 A3021 RMK A01 T01730140  RH  084%=      5-min Rain = 0
KCES 141050Z 01004KT 17/14 A3021 RMK A01 T01720140  RH  085%=      5-min Rain = 0
KCES 141055Z 01003KT 17/14 A3021 RMK A01 T01730141  RH  085%=      5-min Rain = 0
KCES 141100Z 01003KT 17/14 A3021 RMK A01 T01730141  RH  085%=      5-min Rain = 0
KCES 141105Z 00002KT 17/14 A302 RMK A01 T01730140  RH  085%=      5-min Rain = 0
KCES 141110Z 33005G13KT 17/14 A302 RMK A01 T01710139  RH  085%=      5-min Rain = 0
KCES 141115Z 33010KT 17/14 A3021 RMK A01 T01720143  RH  087%=      5-min Rain = 0
KCES 141120Z 34008KT 18/14 A3021 RMK A01 T01770144  RH  084%=      5-min Rain = 0
KCES 141125Z 36007KT 18/14 A3021 RMK A01 T01800142  RH  082%=      5-min Rain = 0
KCES 141130Z 36006G11KT 18/14 A302 RMK A01 T01800141  RH  081%=      5-min Rain = 0
KCES 141135Z 35009KT 18/14 A3021 RMK A01 T01800141  RH  081%=      5-min Rain = 0
KCES 141140Z 36009KT 18/14 A3021 RMK A01 T01780140  RH  082%=      5-min Rain = 0
KCES 141145Z 00007G12KT 18/14 A3021 RMK A01 T01790139  RH  081%=      5-min Rain = 0
KCES 141150Z 35010KT 18/14 A3021 RMK A01 T01790139  RH  081%=      5-min Rain = 0
KCES 141155Z 35008KT 18/14 A3021 RMK A01 T01790138  RH  080%=      5-min Rain = 0
KCES 141200Z 35009KT 18/14 A3021 RMK A01 T01790137  RH  080%=      5-min Rain = 0
KCES 141205Z 36008KT 18/14 A3021 RMK A01 T01790137  RH  080%=      5-min Rain = 0
KCES 141210Z 36005KT 18/14 A3021 RMK A01 T01770137  RH  080%=      5-min Rain = 0
KCES 141215Z 34006KT 18/14 A3021 RMK A01 T01760136  RH  081%=      5-min Rain = 0
KCES 141220Z 34004KT 18/14 A3021 RMK A01 T01760137  RH  081%=      5-min Rain = 0
KCES 141225Z 34003KT 18/14 A3021 RMK A01 T01750137  RH  082%=      5-min Rain = 0
KCES 141230Z 34004KT 18/14 A3022 RMK A01 T01750137  RH  082%=      5-min Rain = 0
KCES 141235Z 33005KT 18/14 A3021 RMK A01 T01750139  RH  082%=      5-min Rain = 0
KCES 141240Z 33007KT 18/14 A3021 RMK A01 T01780140  RH  082%=      5-min Rain = 0
KCES 141245Z 33007KT 18/14 A3021 RMK A01 T01800140  RH  081%=      5-min Rain = 0
KCES 141250Z 33005KT 18/14 A3021 RMK A01 T01820140  RH  080%=      5-min Rain = 0
KCES 141255Z 32006KT 18/14 A3022 RMK A01 T01840141  RH  079%=      5-min Rain = 0
KCES 141300Z 33005KT 19/14 A3022 RMK A01 T01850140  RH  078%=      5-min Rain = 0
KCES 141305Z 32004KT 19/14 A3022 RMK A01 T01860141  RH  078%=      5-min Rain = 0
KCES 141310Z 31004KT 19/14 A3022 RMK A01 T01880141  RH  077%=      5-min Rain = 0
KCES 141315Z 32001KT 19/14 A3021 RMK A01 T01890141  RH  077%=      5-min Rain = 0
KCES 141320Z 31003KT 19/14 A3022 RMK A01 T01910142  RH  077%=      5-min Rain = 0
KCES 141325Z 31003KT 19/14 A3022 RMK A01 T01920143  RH  076%=      5-min Rain = 0
KCES 141330Z 31006KT 19/14 A3022 RMK A01 T01940143  RH  075%=      5-min Rain = 0
KCES 141335Z 30006KT 20/14 A3023 RMK A01 T01950142  RH  074%=      5-min Rain = 0
KCES 141340Z 29005KT 20/14 A3023 RMK A01 T01970142  RH  074%=      5-min Rain = 0
KCES 141345Z 25005KT 20/14 A3023 RMK A01 T01980143  RH  073%=      5-min Rain = 0
KCES 141350Z 25005KT 20/14 A3023 RMK A01 T01990143  RH  073%=      5-min Rain = 0
KCES 141355Z 27003KT 20/14 A3023 RMK A01 T02000142  RH  072%=      5-min Rain = 0
KCES 141400Z 27002KT 20/14 A3023 RMK A01 T02020142  RH  071%=      5-min Rain = 0
KCES 141405Z 22001KT 20/14 A3023 RMK A01 T02040142  RH  071%=      5-min Rain = 0
KCES 141410Z 11001KT 21/14 A3024 RMK A01 T02060142  RH  070%=      5-min Rain = 0
KCES 141415Z 09002KT 21/14 A3023 RMK A01 T02070142  RH  069%=      5-min Rain = 0
KCES 141420Z 08002KT 21/14 A3023 RMK A01 T02080143  RH  069%=      5-min Rain = 0
KCES 141425Z 05001KT 21/14 A3023 RMK A01 T02090144  RH  069%=      5-min Rain = 0
KCES 141430Z 06001KT 21/15 A3023 RMK A01 T02120145  RH  069%=      5-min Rain = 0
KCES 141435Z 09002KT 21/15 A3023 RMK A01 T02140147  RH  068%=      5-min Rain = 0
KCES 141440Z 13003KT 22/15 A3022 RMK A01 T02170148  RH  068%=      5-min Rain = 0
KCES 141445Z 13002KT 22/15 A3022 RMK A01 T02190149  RH  067%=      5-min Rain = 0
KCES 141450Z 09001KT 22/15 A3022 RMK A01 T02210149  RH  066%=      5-min Rain = 0
KCES 141455Z 07000KT 22/15 A3022 RMK A01 T02230150  RH  066%=      5-min Rain = 0
KCES 141500Z 24001KT 23/15 A3022 RMK A01 T02260151  RH  065%=      5-min Rain = 0
KCES 141505Z 18001KT 23/15 A3022 RMK A01 T02280151  RH  064%=      5-min Rain = 0
KCES 141510Z 17002KT 23/15 A3022 RMK A01 T02310151  RH  064%=      5-min Rain = 0
KCES 141515Z 18003KT 23/15 A3022 RMK A01 T02340151  RH  062%=      5-min Rain = 0
KCES 141520Z 16003KT 24/15 A3021 RMK A01 T02360152  RH  062%=      5-min Rain = 0
KCES 141525Z 16004KT 24/15 A3021 RMK A01 T02390152  RH  061%=      5-min Rain = 0
KCES 141530Z 16006KT 24/15 A3021 RMK A01 T02410154  RH  061%=      5-min Rain = 0
KCES 141535Z 16003KT 24/15 A3021 RMK A01 T02420154  RH  061%=      5-min Rain = 0
KCES 141540Z 18003KT 24/16 A3021 RMK A01 T02420156  RH  061%=      5-min Rain = 0
KCES 141545Z 19004KT 25/16 A3021 RMK A01 T02450157  RH  061%=      5-min Rain = 0
KCES 141550Z 20002KT 25/16 A3022 RMK A01 T02470158  RH  060%=      5-min Rain = 0
KCES 141555Z 32003KT 25/16 A3023 RMK A01 T02530159  RH  059%=      5-min Rain = 0
KCES 141600Z 31006KT 26/16 A3023 RMK A01 T02570158  RH  057%=      5-min Rain = 0
KCES 141605Z 33006KT 26/16 A3023 RMK A01 T02560158  RH  057%=      5-min Rain = 0
KCES 141610Z 35008KT 25/16 A3022 RMK A01 T02540158  RH  058%=      5-min Rain = 0
KCES 141615Z 35008KT 26/16 A3022 RMK A01 T02550159  RH  058%=      5-min Rain = 0
KCES 141620Z 33006KT 26/16 A3023 RMK A01 T02560159  RH  058%=      5-min Rain = 0
KCES 141625Z 31005KT 26/16 A3023 RMK A01 T02570159  RH  057%=      5-min Rain = 0
KCES 141630Z 32006KT 26/16 A3023 RMK A01 T02600159  RH  056%=      5-min Rain = 0
KCES 141635Z 36012G19KT 27/14 A3022 RMK A01 T02670141  RH  048%=      5-min Rain = 0
KCES 141640Z 02018G23KT 27/13 A3022 RMK A01 T02700130  RH  044%=      5-min Rain = 0
KCES 141645Z 01016KT 27/13 A3022 RMK A01 T02680129  RH  044%=      5-min Rain = 0
KCES 141650Z 01015G20KT 27/13 A3022 RMK A01 T02740128  RH  042%=      5-min Rain = 0
KCES 141655Z 01014KT 28/13 A3022 RMK A01 T02760125  RH  041%=      5-min Rain = 0
KCES 141700Z 02016KT 27/12 A3022 RMK A01 T02670123  RH  042%=      5-min Rain = 0
KCES 141705Z 03013G19KT 27/12 A3022 RMK A01 T02660124  RH  043%=      5-min Rain = 0
KCES 141710Z 03011KT 27/13 A3022 RMK A01 T02670125  RH  043%=      5-min Rain = 0
KCES 141715Z 04010KT 27/13 A3022 RMK A01 T02730126  RH  042%=      5-min Rain = 0
KCES 141720Z 03013G18KT 27/13 A3022 RMK A01 T02730125  RH  042%=      5-min Rain = 0
KCES 141725Z 03014KT 28/12 A3022 RMK A01 T02760124  RH  041%=      5-min Rain = 0
KCES 141730Z 03013KT 28/13 A3021 RMK A01 T02810125  RH  040%=      5-min Rain = 0
KCES 141735Z 03014KT 29/12 A3021 RMK A01 T02850124  RH  038%=      5-min Rain = 0
KCES 141740Z 03013G18KT 29/13 A302 RMK A01 T02870125  RH  038%=      5-min Rain = 0
KCES 141745Z 03012KT 29/13 A302 RMK A01 T02900125  RH  038%=      5-min Rain = 0
KCES 141750Z 04013G21KT 29/13 A3019 RMK A01 T02870125  RH  038%=      5-min Rain = 0
KCES 141755Z 04013G18KT 29/13 A3019 RMK A01 T02910125  RH  037%=      5-min Rain = 0
KCES 141800Z 05013KT 29/13 A3018 RMK A01 T02910125  RH  037%=      5-min Rain = 0
KCES 141805Z 05010G17KT 29/13 A3019 RMK A01 T02880128  RH  039%=      5-min Rain = 0
KCES 141810Z 05010KT 29/13 A3019 RMK A01 T02900125  RH  038%=      5-min Rain = 0
KCES 141815Z 03009G15KT 29/13 A3019 RMK A01 T02920126  RH  037%=      5-min Rain = 0
KCES 141820Z 02009G14KT 30/13 A3019 RMK A01 T02960127  RH  037%=      5-min Rain = 0
KCES 141825Z 05009KT 30/13 A3018 RMK A01 T02960129  RH  037%=      5-min Rain = 0
KCES 141830Z 04009KT 30/13 A3018 RMK A01 T02990130  RH  037%=      5-min Rain = 0
KCES 141835Z 04008G14KT 30/13 A3017 RMK A01 T02960129  RH  037%=      5-min Rain = 0
KCES 141840Z 02007G13KT 30/13 A3017 RMK A01 T02960130  RH  037%=      5-min Rain = 0
KCES 141845Z 02008KT 30/13 A3017 RMK A01 T03020131  RH  037%=      5-min Rain = 0
KCES 141850Z 05007KT 31/13 A3016 RMK A01 T03080132  RH  036%=      5-min Rain = 0
KCES 141855Z 10009G14KT 31/13 A3016 RMK A01 T03060129  RH  035%=      5-min Rain = 0
KCES 141900Z 10008KT 30/13 A3016 RMK A01 T03040128  RH  036%=      5-min Rain = 0
KCES 141905Z 10008G13KT 31/13 A3016 RMK A01 T03060132  RH  036%=      5-min Rain = 0
KCES 141910Z 08008G13KT 31/13 A3015 RMK A01 T03060127  RH  035%=      5-min Rain = 0
KCES 141915Z 10006G11KT 30/13 A3015 RMK A01 T03030125  RH  035%=      5-min Rain = 0
KCES 141920Z 09009G14KT 30/13 A3015 RMK A01 T03020131  RH  036%=      5-min Rain = 0
KCES 141925Z 07007KT 30/13 A3015 RMK A01 T03000129  RH  037%=      5-min Rain = 0
KCES 141930Z 07007KT 30/13 A3016 RMK A01 T02970127  RH  037%=      5-min Rain = 0
KCES 141935Z 07005G10KT 30/13 A3016 RMK A01 T03020129  RH  036%=      5-min Rain = 0
KCES 141940Z 04004KT 31/13 A3015 RMK A01 T03050131  RH  036%=      5-min Rain = 0
KCES 141945Z 09007KT 31/13 A3015 RMK A01 T03080132  RH  035%=      5-min Rain = 0
KCES 141950Z 12006KT 31/13 A3015 RMK A01 T03070130  RH  035%=      5-min Rain = 0
KCES 141955Z 09005G10KT 31/13 A3015 RMK A01 T03100131  RH  035%=      5-min Rain = 0
KCES 142000Z 05004KT 31/13 A3015 RMK A01 T03100131  RH  035%=      5-min Rain = 0
KCES 142005Z 08005KT 31/13 A3014 RMK A01 T03120128  RH  034%=      5-min Rain = 0
KCES 142010Z 11008KT 32/13 A3014 RMK A01 T03150126  RH  033%=      5-min Rain = 0
KCES 142015Z 09005G10KT 31/13 A3014 RMK A01 T03130127  RH  033%=      5-min Rain = 0
KCES 142020Z 14003G8KT 31/13 A3013 RMK A01 T03130129  RH  034%=      5-min Rain = 0
KCES 142025Z 14005KT 32/13 A3013 RMK A01 T03160133  RH  034%=      5-min Rain = 0
KCES 142030Z 09006KT 32/13 A3013 RMK A01 T03190131  RH  033%=      5-min Rain = 0
KCES 142035Z 14006KT 32/13 A3013 RMK A01 T03190129  RH  033%=      5-min Rain = 0
KCES 142040Z 12007KT 32/13 A3013 RMK A01 T03200127  RH  032%=      5-min Rain = 0
KCES 142045Z 15004KT 32/13 A3013 RMK A01 T03220126  RH  032%=      5-min Rain = 0
KCES 142050Z 09005KT 32/13 A3012 RMK A01 T03240125  RH  031%=      5-min Rain = 0
KCES 142055Z 07004KT 33/12 A3012 RMK A01 T03250123  RH  030%=      5-min Rain = 0
KCES 142100Z 15005G10KT 33/12 A3012 RMK A01 T03260121  RH  030%=      5-min Rain = 0
KCES 142105Z 15005G11KT 33/12 A3012 RMK A01 T03250117  RH  029%=      5-min Rain = 0
KCES 142110Z 10003KT 33/12 A3011 RMK A01 T03270119  RH  029%=      5-min Rain = 0
KCES 142115Z 12005KT 33/12 A3011 RMK A01 T03280121  RH  030%=      5-min Rain = 0
KCES 142120Z 11004KT 33/12 A3011 RMK A01 T03290119  RH  029%=      5-min Rain = 0
KCES 142125Z 10002KT 33/12 A3011 RMK A01 T03270123  RH  030%=      5-min Rain = 0
KCES 142130Z 05005KT 33/13 A301 RMK A01 T03320130  RH  030%=      5-min Rain = 0
KCES 142135Z 08003KT 33/13 A301 RMK A01 T03290129  RH  031%=      5-min Rain = 0
KCES 142140Z 06004KT 33/13 A301 RMK A01 T03320130  RH  031%=      5-min Rain = 0
KCES 142145Z 05004KT 33/13 A301 RMK A01 T03320128  RH  030%=      5-min Rain = 0
KCES 142150Z 02003G8KT 33/12 A3009 RMK A01 T03330123  RH  029%=      5-min Rain = 0
KCES 142155Z 03006KT 33/13 A3009 RMK A01 T03340129  RH  030%=      5-min Rain = 0
KCES 142200Z 05006G12KT 33/13 A3009 RMK A01 T03340129  RH  030%=      5-min Rain = 0
KCES 142205Z 05007G14KT 33/13 A3009 RMK A01 T03320129  RH  030%=      5-min Rain = 0
KCES 142210Z 04007KT 33/13 A3009 RMK A01 T03320131  RH  031%=      5-min Rain = 0
KCES 142215Z 10006G11KT 33/13 A3009 RMK A01 T03310131  RH  031%=      5-min Rain = 0
KCES 142220Z 10007KT 33/13 A3009 RMK A01 T03310132  RH  031%=      5-min Rain = 0
KCES 142225Z 10004G10KT 33/13 A3009 RMK A01 T03330132  RH  031%=      5-min Rain = 0
KCES 142230Z 05005G10KT 33/13 A3008 RMK A01 T03330130  RH  031%=      5-min Rain = 0
KCES 142235Z 07007KT 33/13 A3008 RMK A01 T03330127  RH  030%=      5-min Rain = 0
KCES 142240Z 05003KT 33/13 A3008 RMK A01 T03310127  RH  030%=      5-min Rain = 0
KCES 142245Z 03005KT 33/13 A3008 RMK A01 T03310129  RH  031%=      5-min Rain = 0
KCES 142250Z 03008G15KT 33/13 A3008 RMK A01 T03320133  RH  031%=      5-min Rain = 0
KCES 142255Z 05010KT 33/13 A3008 RMK A01 T03330131  RH  031%=      5-min Rain = 0
KCES 142300Z 06007G12KT 33/13 A3008 RMK A01 T03310131  RH  031%=      5-min Rain = 0
KCES 142305Z 06007KT 33/13 A3008 RMK A01 T03290130  RH  031%=      5-min Rain = 0
KCES 142310Z 04009G15KT 33/13 A3008 RMK A01 T03320129  RH  030%=      5-min Rain = 0
KCES 142315Z 03007KT 33/13 A3008 RMK A01 T03320129  RH  030%=      5-min Rain = 0
KCES 142320Z 07006KT 33/13 A3008 RMK A01 T03330128  RH  030%=      5-min Rain = 0
KCES 142325Z 08008KT 33/13 A3008 RMK A01 T03300126  RH  030%=      5-min Rain = 0
KCES 142330Z 07007KT 33/13 A3008 RMK A01 T03290126  RH  030%=      5-min Rain = 0
KCES 142335Z 05006KT 33/13 A3008 RMK A01 T03270125  RH  030%=      5-min Rain = 0
KCES 142340Z 06007KT 33/13 A3008 RMK A01 T03270125  RH  030%=      5-min Rain = 0
KCES 142345Z 07008KT 33/12 A3008 RMK A01 T03270124  RH  030%=      5-min Rain = 0
KCES 142350Z 06007KT 33/12 A3008 RMK A01 T03280124  RH  030%=      5-min Rain = 0
KCES 142355Z 06007KT 33/12 A3008 RMK A01 T03260123  RH  030%=      5-min Rain = 0
KCES 150000Z 06006KT 32/12 A3008 RMK A01 T03240123  RH  030%=      5-min Rain = 0
KCES 150005Z 06006KT 33/12 A3008 RMK A01 T03250122  RH  030%=      5-min Rain = 0
KCES 150010Z 07007KT 33/12 A3008 RMK A01 T03250122  RH  030%=      5-min Rain = 0
KCES 150015Z 05007KT 32/12 A3008 RMK A01 T03240119  RH  030%=      5-min Rain = 0
KCES 150020Z 06008KT 32/12 A3008 RMK A01 T03240117  RH  029%=      5-min Rain = 0
KCES 150025Z 07008KT 32/12 A3008 RMK A01 T03230117  RH  030%=      5-min Rain = 0
KCES 150030Z 08007KT 32/12 A3008 RMK A01 T03220117  RH  030%=      5-min Rain = 0
KCES 150035Z 09007KT 32/12 A3008 RMK A01 T03210117  RH  030%=      5-min Rain = 0
KCES 150040Z 07006KT 32/12 A3008 RMK A01 T03200118  RH  030%=      5-min Rain = 0
KCES 150045Z 08005KT 32/12 A3008 RMK A01 T03190115  RH  030%=      5-min Rain = 0
KCES 150050Z 06005KT 32/12 A3008 RMK A01 T03190117  RH  030%=      5-min Rain = 0
KCES 150055Z 07005KT 32/12 A3008 RMK A01 T03170116  RH  030%=      5-min Rain = 0
KCES 150100Z 09006KT 32/12 A3009 RMK A01 T03150115  RH  030%=      5-min Rain = 0
KCES 150105Z 10006KT 31/12 A3009 RMK A01 T03110118  RH  032%=      5-min Rain = 0
KCES 150110Z 10006KT 31/12 A3009 RMK A01 T03070120  RH  033%=      5-min Rain = 0
KCES 150115Z 10006KT 30/13 A3009 RMK A01 T03030127  RH  035%=      5-min Rain = 0
KCES 150120Z 10006KT 30/13 A3009 RMK A01 T03000134  RH  038%=      5-min Rain = 0
KCES 150125Z 10006KT 30/14 A301 RMK A01 T02960137  RH  039%=      5-min Rain = 0
KCES 150130Z 10006KT 29/14 A301 RMK A01 T02940138  RH  040%=      5-min Rain = 0
KCES 150135Z 10006KT 29/14 A301 RMK A01 T02910140  RH  041%=      5-min Rain = 0
KCES 150140Z 11006KT 29/14 A301 RMK A01 T02870141  RH  042%=      5-min Rain = 0
KCES 150145Z 11005KT 29/14 A301 RMK A01 T02850142  RH  043%=      5-min Rain = 0
KCES 150150Z 11005KT 28/14 A3011 RMK A01 T02820142  RH  044%=      5-min Rain = 0
KCES 150155Z 11005KT 28/14 A3011 RMK A01 T02810143  RH  045%=      5-min Rain = 0
KCES 150200Z 12005KT 28/14 A3011 RMK A01 T02800144  RH  045%=      5-min Rain = 0
KCES 150205Z 12005KT 27/15 A3011 RMK A01 T02740145  RH  047%=      5-min Rain = 0
KCES 150210Z 12005KT 27/15 A3012 RMK A01 T02680147  RH  050%=      5-min Rain = 0
KCES 150215Z 12005KT 26/15 A3012 RMK A01 T02630147  RH  051%=      5-min Rain = 0
KCES 150220Z 12005KT 26/15 A3012 RMK A01 T02600148  RH  052%=      5-min Rain = 0
KCES 150225Z 11005KT 26/15 A3012 RMK A01 T02610147  RH  052%=      5-min Rain = 0
KCES 150230Z 13006KT 26/15 A3012 RMK A01 T02620148  RH  052%=      5-min Rain = 0
KCES 150235Z 13006KT 26/15 A3012 RMK A01 T02580149  RH  053%=      5-min Rain = 0
KCES 150240Z 13006KT 26/15 A3012 RMK A01 T02570149  RH  054%=      5-min Rain = 0
KCES 150245Z 13007KT 26/15 A3013 RMK A01 T02570149  RH  053%=      5-min Rain = 0
KCES 150250Z 13007KT 26/15 A3013 RMK A01 T02580149  RH  053%=      5-min Rain = 0
KCES 150255Z 13007KT 26/15 A3013 RMK A01 T02570149  RH  054%=      5-min Rain = 0
KCES 150300Z 13007KT 26/15 A3013 RMK A01 T02550150  RH  055%=      5-min Rain = 0
KCES 150305Z 13007KT 26/15 A3013 RMK A01 T02550150  RH  054%=      5-min Rain = 0
KCES 150310Z 13007KT 26/15 A3013 RMK A01 T02560150  RH  054%=      5-min Rain = 0
KCES 150315Z 14006KT 26/15 A3013 RMK A01 T02550151  RH  055%=      5-min Rain = 0
KCES 150320Z 13007KT 25/15 A3014 RMK A01 T02540151  RH  055%=      5-min Rain = 0
KCES 150325Z 13007KT 25/15 A3014 RMK A01 T02540151  RH  055%=      5-min Rain = 0
KCES 150330Z 13007KT 26/15 A3014 RMK A01 T02550150  RH  055%=      5-min Rain = 0
KCES 150335Z 13007KT 26/15 A3014 RMK A01 T02580149  RH  053%=      5-min Rain = 0
KCES 150340Z 13007KT 26/15 A3014 RMK A01 T02600149  RH  053%=      5-min Rain = 0
KCES 150345Z 13007KT 26/15 A3015 RMK A01 T02610148  RH  052%=      5-min Rain = 0
KCES 150350Z 14008KT 26/15 A3015 RMK A01 T02620147  RH  051%=      5-min Rain = 0
KCES 150355Z 14008KT 26/15 A3015 RMK A01 T02630146  RH  051%=      5-min Rain = 0
KCES 150400Z 13009KT 27/15 A3015 RMK A01 T02650145  RH  050%=      5-min Rain = 0
KCES 150405Z 13009KT 27/15 A3015 RMK A01 T02670145  RH  049%=      5-min Rain = 0
KCES 150410Z 13008KT 27/15 A3015 RMK A01 T02660145  RH  049%=      5-min Rain = 0
KCES 150415Z 13007KT 27/14 A3016 RMK A01 T02660144  RH  049%=      5-min Rain = 0
KCES 150420Z 13007KT 27/15 A3015 RMK A01 T02650145  RH  050%=      5-min Rain = 0
KCES 150425Z 14006KT 26/15 A3016 RMK A01 T02630145  RH  050%=      5-min Rain = 0
KCES 150430Z 13006KT 26/15 A3016 RMK A01 T02620145  RH  051%=      5-min Rain = 0
KCES 150435Z 14007KT 26/15 A3016 RMK A01 T02620146  RH  051%=      5-min Rain = 0
KCES 150440Z 15007KT 26/15 A3016 RMK A01 T02610147  RH  052%=      5-min Rain = 0
KCES 150445Z 14008KT 26/15 A3016 RMK A01 T02590148  RH  053%=      5-min Rain = 0
KCES 150450Z 14008KT 26/15 A3016 RMK A01 T02600148  RH  052%=      5-min Rain = 0
KCES 150455Z 14008KT 26/15 A3016 RMK A01 T02600149  RH  053%=      5-min Rain = 0

Page generated in 0.0131 seconds.